sensor_id;sensor_type;location;lat;lon;timestamp;P1;durP1;ratioP1;P2;durP2;ratioP2
66559;SDS011;53413;49.878;8.142;2024-01-30T00:00:54;30.45;;;10.70;;
66559;SDS011;53413;49.878;8.142;2024-01-30T00:03:19;32.67;;;11.63;;
66559;SDS011;53413;49.878;8.142;2024-01-30T00:05:44;35.33;;;12.43;;
66559;SDS011;53413;49.878;8.142;2024-01-30T00:08:10;32.50;;;11.10;;
66559;SDS011;53413;49.878;8.142;2024-01-30T00:10:35;32.53;;;11.03;;
66559;SDS011;53413;49.878;8.142;2024-01-30T00:13:01;28.70;;;10.75;;
66559;SDS011;53413;49.878;8.142;2024-01-30T00:15:27;29.45;;;9.65;;
66559;SDS011;53413;49.878;8.142;2024-01-30T00:17:53;28.70;;;10.87;;
66559;SDS011;53413;49.878;8.142;2024-01-30T00:20:18;31.77;;;10.77;;
66559;SDS011;53413;49.878;8.142;2024-01-30T00:22:44;26.15;;;10.30;;
66559;SDS011;53413;49.878;8.142;2024-01-30T00:25:09;28.83;;;10.40;;
66559;SDS011;53413;49.878;8.142;2024-01-30T00:27:34;27.07;;;10.13;;
66559;SDS011;53413;49.878;8.142;2024-01-30T00:30:00;28.53;;;10.50;;
66559;SDS011;53413;49.878;8.142;2024-01-30T00:32:25;26.63;;;10.53;;
66559;SDS011;53413;49.878;8.142;2024-01-30T00:34:50;26.93;;;10.30;;
66559;SDS011;53413;49.878;8.142;2024-01-30T00:37:16;27.42;;;10.63;;
66559;SDS011;53413;49.878;8.142;2024-01-30T00:39:41;27.70;;;10.70;;
66559;SDS011;53413;49.878;8.142;2024-01-30T00:42:07;31.23;;;11.17;;
66559;SDS011;53413;49.878;8.142;2024-01-30T00:44:34;29.63;;;10.60;;
66559;SDS011;53413;49.878;8.142;2024-01-30T00:47:02;25.55;;;10.43;;
66559;SDS011;53413;49.878;8.142;2024-01-30T00:49:28;28.15;;;10.13;;
66559;SDS011;53413;49.878;8.142;2024-01-30T00:51:53;28.33;;;10.00;;
66559;SDS011;53413;49.878;8.142;2024-01-30T00:54:18;25.53;;;9.77;;
66559;SDS011;53413;49.878;8.142;2024-01-30T00:56:44;29.37;;;10.77;;
66559;SDS011;53413;49.878;8.142;2024-01-30T00:59:09;28.47;;;10.43;;
66559;SDS011;53413;49.878;8.142;2024-01-30T01:01:34;26.30;;;10.43;;
66559;SDS011;53413;49.878;8.142;2024-01-30T01:04:00;26.70;;;10.00;;
66559;SDS011;53413;49.878;8.142;2024-01-30T01:06:25;25.30;;;9.87;;
66559;SDS011;53413;49.878;8.142;2024-01-30T01:08:50;26.00;;;9.65;;
66559;SDS011;53413;49.878;8.142;2024-01-30T01:11:15;28.43;;;9.97;;
66559;SDS011;53413;49.878;8.142;2024-01-30T01:13:41;29.37;;;10.30;;
66559;SDS011;53413;49.878;8.142;2024-01-30T01:16:06;31.20;;;10.47;;
66559;SDS011;53413;49.878;8.142;2024-01-30T01:18:31;27.47;;;10.20;;
66559;SDS011;53413;49.878;8.142;2024-01-30T01:20:57;26.47;;;10.37;;
66559;SDS011;53413;49.878;8.142;2024-01-30T01:23:22;26.37;;;10.77;;
66559;SDS011;53413;49.878;8.142;2024-01-30T01:25:47;28.80;;;9.90;;
66559;SDS011;53413;49.878;8.142;2024-01-30T01:28:13;33.03;;;10.97;;
66559;SDS011;53413;49.878;8.142;2024-01-30T01:30:38;31.25;;;10.68;;
66559;SDS011;53413;49.878;8.142;2024-01-30T01:33:04;30.47;;;10.83;;
66559;SDS011;53413;49.878;8.142;2024-01-30T01:35:29;26.37;;;10.90;;
66559;SDS011;53413;49.878;8.142;2024-01-30T01:37:54;27.30;;;10.03;;
66559;SDS011;53413;49.878;8.142;2024-01-30T01:40:21;27.73;;;10.90;;
66559;SDS011;53413;49.878;8.142;2024-01-30T01:42:50;27.80;;;10.20;;
66559;SDS011;53413;49.878;8.142;2024-01-30T01:45:17;29.70;;;10.95;;
66559;SDS011;53413;49.878;8.142;2024-01-30T01:47:42;31.10;;;10.40;;
66559;SDS011;53413;49.878;8.142;2024-01-30T01:50:11;30.48;;;10.20;;
66559;SDS011;53413;49.878;8.142;2024-01-30T01:52:38;32.35;;;11.48;;
66559;SDS011;53413;49.878;8.142;2024-01-30T01:55:05;28.77;;;10.85;;
66559;SDS011;53413;49.878;8.142;2024-01-30T01:57:31;31.13;;;11.80;;
66559;SDS011;53413;49.878;8.142;2024-01-30T01:59:57;30.33;;;11.23;;
66559;SDS011;53413;49.878;8.142;2024-01-30T02:02:23;26.50;;;11.00;;
66559;SDS011;53413;49.878;8.142;2024-01-30T02:04:50;31.98;;;11.10;;
66559;SDS011;53413;49.878;8.142;2024-01-30T02:07:16;30.05;;;10.57;;
66559;SDS011;53413;49.878;8.142;2024-01-30T02:09:42;32.97;;;11.50;;
66559;SDS011;53413;49.878;8.142;2024-01-30T02:12:07;29.20;;;10.93;;
66559;SDS011;53413;49.878;8.142;2024-01-30T02:14:32;30.33;;;10.53;;
66559;SDS011;53413;49.878;8.142;2024-01-30T02:16:59;28.93;;;10.63;;
66559;SDS011;53413;49.878;8.142;2024-01-30T02:19:24;24.33;;;10.10;;
66559;SDS011;53413;49.878;8.142;2024-01-30T02:21:49;30.10;;;11.00;;
66559;SDS011;53413;49.878;8.142;2024-01-30T02:24:15;27.93;;;10.80;;
66559;SDS011;53413;49.878;8.142;2024-01-30T02:26:40;30.23;;;10.60;;
66559;SDS011;53413;49.878;8.142;2024-01-30T02:29:05;28.13;;;11.30;;
66559;SDS011;53413;49.878;8.142;2024-01-30T02:31:31;26.90;;;10.27;;
66559;SDS011;53413;49.878;8.142;2024-01-30T02:33:56;29.63;;;11.15;;
66559;SDS011;53413;49.878;8.142;2024-01-30T02:36:21;30.73;;;10.73;;
66559;SDS011;53413;49.878;8.142;2024-01-30T02:38:47;28.57;;;10.60;;
66559;SDS011;53413;49.878;8.142;2024-01-30T02:41:12;28.23;;;11.00;;
66559;SDS011;53413;49.878;8.142;2024-01-30T02:43:38;29.17;;;10.30;;
66559;SDS011;53413;49.878;8.142;2024-01-30T02:46:03;30.00;;;10.07;;
66559;SDS011;53413;49.878;8.142;2024-01-30T02:48:28;30.02;;;10.85;;
66559;SDS011;53413;49.878;8.142;2024-01-30T02:50:54;28.38;;;10.43;;
66559;SDS011;53413;49.878;8.142;2024-01-30T02:53:19;31.17;;;10.77;;
66559;SDS011;53413;49.878;8.142;2024-01-30T02:55:44;25.57;;;10.03;;
66559;SDS011;53413;49.878;8.142;2024-01-30T02:58:10;32.07;;;11.23;;
66559;SDS011;53413;49.878;8.142;2024-01-30T03:00:35;28.40;;;10.90;;
66559;SDS011;53413;49.878;8.142;2024-01-30T03:03:00;27.90;;;10.87;;
66559;SDS011;53413;49.878;8.142;2024-01-30T03:05:26;29.63;;;10.50;;
66559;SDS011;53413;49.878;8.142;2024-01-30T03:07:52;27.73;;;10.87;;
66559;SDS011;53413;49.878;8.142;2024-01-30T03:10:17;30.07;;;10.43;;
66559;SDS011;53413;49.878;8.142;2024-01-30T03:12:43;30.07;;;11.17;;
66559;SDS011;53413;49.878;8.142;2024-01-30T03:15:08;29.57;;;10.33;;
66559;SDS011;53413;49.878;8.142;2024-01-30T03:17:34;35.47;;;11.32;;
66559;SDS011;53413;49.878;8.142;2024-01-30T03:20:01;28.20;;;10.20;;
66559;SDS011;53413;49.878;8.142;2024-01-30T03:22:27;30.08;;;10.95;;
66559;SDS011;53413;49.878;8.142;2024-01-30T03:24:52;31.70;;;11.30;;
66559;SDS011;53413;49.878;8.142;2024-01-30T03:27:18;28.30;;;10.17;;
66559;SDS011;53413;49.878;8.142;2024-01-30T03:29:43;29.13;;;10.97;;
66559;SDS011;53413;49.878;8.142;2024-01-30T03:32:08;30.37;;;10.40;;
66559;SDS011;53413;49.878;8.142;2024-01-30T03:34:34;29.60;;;10.87;;
66559;SDS011;53413;49.878;8.142;2024-01-30T03:36:59;36.43;;;11.73;;
66559;SDS011;53413;49.878;8.142;2024-01-30T03:39:24;28.20;;;10.40;;
66559;SDS011;53413;49.878;8.142;2024-01-30T03:41:50;28.35;;;10.20;;
66559;SDS011;53413;49.878;8.142;2024-01-30T03:44:15;30.58;;;10.20;;
66559;SDS011;53413;49.878;8.142;2024-01-30T03:46:40;29.10;;;10.43;;
66559;SDS011;53413;49.878;8.142;2024-01-30T03:49:06;31.60;;;10.73;;
66559;SDS011;53413;49.878;8.142;2024-01-30T03:51:31;28.70;;;10.23;;
66559;SDS011;53413;49.878;8.142;2024-01-30T03:53:56;29.00;;;10.23;;
66559;SDS011;53413;49.878;8.142;2024-01-30T03:56:21;27.90;;;9.87;;
66559;SDS011;53413;49.878;8.142;2024-01-30T03:58:47;31.08;;;10.75;;
66559;SDS011;53413;49.878;8.142;2024-01-30T04:01:13;28.05;;;10.35;;
66559;SDS011;53413;49.878;8.142;2024-01-30T04:03:39;29.63;;;10.53;;
66559;SDS011;53413;49.878;8.142;2024-01-30T04:06:05;27.83;;;10.65;;
66559;SDS011;53413;49.878;8.142;2024-01-30T04:08:30;33.63;;;12.00;;
66559;SDS011;53413;49.878;8.142;2024-01-30T04:10:55;31.03;;;10.77;;
66559;SDS011;53413;49.878;8.142;2024-01-30T04:13:21;29.13;;;11.07;;
66559;SDS011;53413;49.878;8.142;2024-01-30T04:15:46;28.77;;;11.40;;
66559;SDS011;53413;49.878;8.142;2024-01-30T04:18:11;33.50;;;11.17;;
66559;SDS011;53413;49.878;8.142;2024-01-30T04:20:37;28.80;;;10.53;;
66559;SDS011;53413;49.878;8.142;2024-01-30T04:23:02;28.07;;;10.90;;
66559;SDS011;53413;49.878;8.142;2024-01-30T04:25:27;28.77;;;10.50;;
66559;SDS011;53413;49.878;8.142;2024-01-30T04:27:53;22.83;;;9.68;;
66559;SDS011;53413;49.878;8.142;2024-01-30T04:30:18;29.13;;;10.33;;
66559;SDS011;53413;49.878;8.142;2024-01-30T04:32:44;30.50;;;11.00;;
66559;SDS011;53413;49.878;8.142;2024-01-30T04:35:09;29.70;;;10.33;;
66559;SDS011;53413;49.878;8.142;2024-01-30T04:37:34;26.50;;;10.07;;
66559;SDS011;53413;49.878;8.142;2024-01-30T04:40:00;29.57;;;10.90;;
66559;SDS011;53413;49.878;8.142;2024-01-30T04:42:25;34.30;;;11.90;;
66559;SDS011;53413;49.878;8.142;2024-01-30T04:44:50;29.60;;;12.17;;
66559;SDS011;53413;49.878;8.142;2024-01-30T04:47:16;27.20;;;10.53;;
66559;SDS011;53413;49.878;8.142;2024-01-30T04:49:41;26.97;;;10.37;;
66559;SDS011;53413;49.878;8.142;2024-01-30T04:52:07;26.58;;;10.38;;
66559;SDS011;53413;49.878;8.142;2024-01-30T04:54:33;28.63;;;10.65;;
66559;SDS011;53413;49.878;8.142;2024-01-30T04:57:00;30.15;;;10.48;;
66559;SDS011;53413;49.878;8.142;2024-01-30T04:59:25;30.20;;;11.10;;
66559;SDS011;53413;49.878;8.142;2024-01-30T05:01:50;29.17;;;10.77;;
66559;SDS011;53413;49.878;8.142;2024-01-30T05:04:16;25.83;;;9.83;;
66559;SDS011;53413;49.878;8.142;2024-01-30T05:06:41;26.97;;;9.53;;
66559;SDS011;53413;49.878;8.142;2024-01-30T05:09:07;27.20;;;10.03;;
66559;SDS011;53413;49.878;8.142;2024-01-30T05:11:36;30.35;;;10.25;;
66559;SDS011;53413;49.878;8.142;2024-01-30T05:14:05;32.80;;;10.57;;
66559;SDS011;53413;49.878;8.142;2024-01-30T05:16:31;26.38;;;9.98;;
66559;SDS011;53413;49.878;8.142;2024-01-30T05:18:57;30.77;;;11.07;;
66559;SDS011;53413;49.878;8.142;2024-01-30T05:21:23;27.47;;;10.80;;
66559;SDS011;53413;49.878;8.142;2024-01-30T05:23:48;28.08;;;11.30;;
66559;SDS011;53413;49.878;8.142;2024-01-30T05:26:14;31.27;;;10.90;;
66559;SDS011;53413;49.878;8.142;2024-01-30T05:28:39;27.77;;;10.33;;
66559;SDS011;53413;49.878;8.142;2024-01-30T05:31:05;25.77;;;10.40;;
66559;SDS011;53413;49.878;8.142;2024-01-30T05:33:30;23.53;;;10.00;;
66559;SDS011;53413;49.878;8.142;2024-01-30T05:35:55;29.77;;;10.77;;
66559;SDS011;53413;49.878;8.142;2024-01-30T05:38:21;27.20;;;10.43;;
66559;SDS011;53413;49.878;8.142;2024-01-30T05:40:46;31.00;;;10.82;;
66559;SDS011;53413;49.878;8.142;2024-01-30T05:43:11;28.58;;;10.18;;
66559;SDS011;53413;49.878;8.142;2024-01-30T05:45:37;27.83;;;10.33;;
66559;SDS011;53413;49.878;8.142;2024-01-30T05:48:02;28.33;;;10.73;;
66559;SDS011;53413;49.878;8.142;2024-01-30T05:50:28;28.73;;;10.55;;
66559;SDS011;53413;49.878;8.142;2024-01-30T05:52:54;31.27;;;11.87;;
66559;SDS011;53413;49.878;8.142;2024-01-30T05:55:19;31.47;;;11.03;;
66559;SDS011;53413;49.878;8.142;2024-01-30T05:57:44;32.17;;;11.20;;
66559;SDS011;53413;49.878;8.142;2024-01-30T06:00:10;32.37;;;11.60;;
66559;SDS011;53413;49.878;8.142;2024-01-30T06:02:35;35.88;;;12.25;;
66559;SDS011;53413;49.878;8.142;2024-01-30T06:05:02;31.50;;;11.05;;
66559;SDS011;53413;49.878;8.142;2024-01-30T06:07:27;31.40;;;10.70;;
66559;SDS011;53413;49.878;8.142;2024-01-30T06:09:53;25.80;;;10.13;;
66559;SDS011;53413;49.878;8.142;2024-01-30T06:12:18;33.00;;;10.97;;
66559;SDS011;53413;49.878;8.142;2024-01-30T06:14:43;31.63;;;11.27;;
66559;SDS011;53413;49.878;8.142;2024-01-30T06:17:11;32.13;;;10.40;;
66559;SDS011;53413;49.878;8.142;2024-01-30T06:19:37;35.33;;;11.55;;
66559;SDS011;53413;49.878;8.142;2024-01-30T06:22:04;35.92;;;12.52;;
66559;SDS011;53413;49.878;8.142;2024-01-30T06:24:29;32.42;;;11.23;;
66559;SDS011;53413;49.878;8.142;2024-01-30T06:26:55;35.95;;;11.25;;
66559;SDS011;53413;49.878;8.142;2024-01-30T06:29:20;31.67;;;11.70;;
66559;SDS011;53413;49.878;8.142;2024-01-30T06:31:46;38.13;;;12.93;;
66559;SDS011;53413;49.878;8.142;2024-01-30T06:34:11;34.30;;;11.40;;
66559;SDS011;53413;49.878;8.142;2024-01-30T06:36:37;34.55;;;12.90;;
66559;SDS011;53413;49.878;8.142;2024-01-30T06:39:02;38.13;;;13.20;;
66559;SDS011;53413;49.878;8.142;2024-01-30T06:41:28;35.85;;;12.93;;
66559;SDS011;53413;49.878;8.142;2024-01-30T06:43:54;39.97;;;13.25;;
66559;SDS011;53413;49.878;8.142;2024-01-30T06:46:20;43.50;;;13.97;;
66559;SDS011;53413;49.878;8.142;2024-01-30T06:48:45;57.00;;;13.70;;
66559;SDS011;53413;49.878;8.142;2024-01-30T06:51:11;48.57;;;14.13;;
66559;SDS011;53413;49.878;8.142;2024-01-30T06:53:37;38.58;;;13.77;;
66559;SDS011;53413;49.878;8.142;2024-01-30T06:56:02;41.27;;;14.23;;
66559;SDS011;53413;49.878;8.142;2024-01-30T06:58:28;40.80;;;13.13;;
66559;SDS011;53413;49.878;8.142;2024-01-30T07:00:54;44.73;;;13.23;;
66559;SDS011;53413;49.878;8.142;2024-01-30T07:03:19;38.88;;;12.68;;
66559;SDS011;53413;49.878;8.142;2024-01-30T07:05:45;47.27;;;13.40;;
66559;SDS011;53413;49.878;8.142;2024-01-30T07:08:10;58.30;;;12.40;;
66559;SDS011;53413;49.878;8.142;2024-01-30T07:10:35;36.07;;;11.93;;
66559;SDS011;53413;49.878;8.142;2024-01-30T07:13:01;37.67;;;12.07;;
66559;SDS011;53413;49.878;8.142;2024-01-30T07:15:26;36.53;;;13.37;;
66559;SDS011;53413;49.878;8.142;2024-01-30T07:17:51;46.83;;;12.50;;
66559;SDS011;53413;49.878;8.142;2024-01-30T07:20:17;36.92;;;11.90;;
66559;SDS011;53413;49.878;8.142;2024-01-30T07:22:45;32.30;;;11.23;;
66559;SDS011;53413;49.878;8.142;2024-01-30T07:25:10;42.20;;;12.43;;
66559;SDS011;53413;49.878;8.142;2024-01-30T07:27:36;38.53;;;11.77;;
66559;SDS011;53413;49.878;8.142;2024-01-30T07:30:01;41.07;;;12.50;;
66559;SDS011;53413;49.878;8.142;2024-01-30T07:32:27;39.83;;;12.43;;
66559;SDS011;53413;49.878;8.142;2024-01-30T07:34:52;38.40;;;12.27;;
66559;SDS011;53413;49.878;8.142;2024-01-30T07:37:17;40.50;;;12.77;;
66559;SDS011;53413;49.878;8.142;2024-01-30T07:39:43;32.43;;;11.67;;
66559;SDS011;53413;49.878;8.142;2024-01-30T07:42:09;35.63;;;12.23;;
66559;SDS011;53413;49.878;8.142;2024-01-30T07:44:34;34.43;;;12.40;;
66559;SDS011;53413;49.878;8.142;2024-01-30T07:46:59;39.60;;;12.70;;
66559;SDS011;53413;49.878;8.142;2024-01-30T07:49:25;40.60;;;12.67;;
66559;SDS011;53413;49.878;8.142;2024-01-30T07:51:50;36.83;;;13.27;;
66559;SDS011;53413;49.878;8.142;2024-01-30T07:54:16;37.73;;;11.93;;
66559;SDS011;53413;49.878;8.142;2024-01-30T07:56:41;35.07;;;11.90;;
66559;SDS011;53413;49.878;8.142;2024-01-30T07:59:09;37.47;;;12.02;;
66559;SDS011;53413;49.878;8.142;2024-01-30T08:01:36;33.27;;;12.43;;
66559;SDS011;53413;49.878;8.142;2024-01-30T08:04:01;36.05;;;12.35;;
66559;SDS011;53413;49.878;8.142;2024-01-30T08:06:26;35.50;;;12.10;;
66559;SDS011;53413;49.878;8.142;2024-01-30T08:08:52;37.00;;;11.40;;
66559;SDS011;53413;49.878;8.142;2024-01-30T08:11:19;35.37;;;12.40;;
66559;SDS011;53413;49.878;8.142;2024-01-30T08:13:45;37.33;;;12.35;;
66559;SDS011;53413;49.878;8.142;2024-01-30T08:16:11;40.45;;;12.70;;
66559;SDS011;53413;49.878;8.142;2024-01-30T08:18:36;37.60;;;13.33;;
66559;SDS011;53413;49.878;8.142;2024-01-30T08:21:01;32.00;;;11.60;;
66559;SDS011;53413;49.878;8.142;2024-01-30T08:23:27;31.63;;;11.75;;
66559;SDS011;53413;49.878;8.142;2024-01-30T08:25:53;36.57;;;12.97;;
66559;SDS011;53413;49.878;8.142;2024-01-30T08:28:18;30.67;;;12.17;;
66559;SDS011;53413;49.878;8.142;2024-01-30T08:30:43;34.40;;;12.80;;
66559;SDS011;53413;49.878;8.142;2024-01-30T08:33:09;30.90;;;12.70;;
66559;SDS011;53413;49.878;8.142;2024-01-30T08:35:34;36.93;;;14.00;;
66559;SDS011;53413;49.878;8.142;2024-01-30T08:37:59;36.47;;;13.07;;
66559;SDS011;53413;49.878;8.142;2024-01-30T08:40:25;38.33;;;12.95;;
66559;SDS011;53413;49.878;8.142;2024-01-30T08:42:50;37.87;;;12.70;;
66559;SDS011;53413;49.878;8.142;2024-01-30T08:45:15;31.00;;;12.30;;
66559;SDS011;53413;49.878;8.142;2024-01-30T08:47:41;28.07;;;12.20;;
66559;SDS011;53413;49.878;8.142;2024-01-30T08:50:07;30.97;;;11.87;;
66559;SDS011;53413;49.878;8.142;2024-01-30T08:52:32;33.13;;;12.23;;
66559;SDS011;53413;49.878;8.142;2024-01-30T08:54:59;30.55;;;12.40;;
66559;SDS011;53413;49.878;8.142;2024-01-30T08:57:24;32.27;;;12.17;;
66559;SDS011;53413;49.878;8.142;2024-01-30T08:59:53;31.52;;;12.13;;
66559;SDS011;53413;49.878;8.142;2024-01-30T09:02:19;31.27;;;12.37;;
66559;SDS011;53413;49.878;8.142;2024-01-30T09:04:44;29.13;;;11.70;;
66559;SDS011;53413;49.878;8.142;2024-01-30T09:07:09;27.85;;;11.10;;
66559;SDS011;53413;49.878;8.142;2024-01-30T09:09:35;27.60;;;11.87;;
66559;SDS011;53413;49.878;8.142;2024-01-30T09:12:00;33.77;;;12.20;;
66559;SDS011;53413;49.878;8.142;2024-01-30T09:14:31;27.00;;;10.73;;
66559;SDS011;53413;49.878;8.142;2024-01-30T09:16:57;27.43;;;10.70;;
66559;SDS011;53413;49.878;8.142;2024-01-30T09:19:22;26.90;;;11.23;;
66559;SDS011;53413;49.878;8.142;2024-01-30T09:21:48;26.08;;;10.43;;
66559;SDS011;53413;49.878;8.142;2024-01-30T09:24:13;28.93;;;11.53;;
66559;SDS011;53413;49.878;8.142;2024-01-30T09:26:38;25.87;;;10.83;;
66559;SDS011;53413;49.878;8.142;2024-01-30T09:29:04;26.23;;;10.93;;
66559;SDS011;53413;49.878;8.142;2024-01-30T09:31:29;26.37;;;11.27;;
66559;SDS011;53413;49.878;8.142;2024-01-30T09:33:54;27.57;;;11.30;;
66559;SDS011;53413;49.878;8.142;2024-01-30T09:36:20;25.70;;;11.23;;
66559;SDS011;53413;49.878;8.142;2024-01-30T09:38:46;28.42;;;11.63;;
66559;SDS011;53413;49.878;8.142;2024-01-30T09:41:11;32.93;;;13.77;;
66559;SDS011;53413;49.878;8.142;2024-01-30T09:43:37;30.25;;;13.55;;
66559;SDS011;53413;49.878;8.142;2024-01-30T09:46:04;27.67;;;12.13;;
66559;SDS011;53413;49.878;8.142;2024-01-30T09:48:30;28.35;;;12.40;;
66559;SDS011;53413;49.878;8.142;2024-01-30T09:50:57;27.63;;;11.23;;
66559;SDS011;53413;49.878;8.142;2024-01-30T09:53:23;29.10;;;12.68;;
66559;SDS011;53413;49.878;8.142;2024-01-30T09:55:49;31.40;;;13.70;;
66559;SDS011;53413;49.878;8.142;2024-01-30T09:58:15;28.17;;;12.88;;
66559;SDS011;53413;49.878;8.142;2024-01-30T10:00:41;34.20;;;14.10;;
66559;SDS011;53413;49.878;8.142;2024-01-30T10:03:07;32.55;;;14.45;;
66559;SDS011;53413;49.878;8.142;2024-01-30T10:05:33;37.60;;;16.48;;
66559;SDS011;53413;49.878;8.142;2024-01-30T10:08:05;44.90;;;18.40;;
66559;SDS011;53413;49.878;8.142;2024-01-30T10:10:31;42.58;;;18.85;;
66559;SDS011;53413;49.878;8.142;2024-01-30T10:12:56;36.27;;;15.63;;
66559;SDS011;53413;49.878;8.142;2024-01-30T10:15:22;39.60;;;17.00;;
66559;SDS011;53413;49.878;8.142;2024-01-30T10:17:47;32.33;;;15.00;;
66559;SDS011;53413;49.878;8.142;2024-01-30T10:20:12;30.83;;;14.70;;
66559;SDS011;53413;49.878;8.142;2024-01-30T10:22:39;33.03;;;14.70;;
66559;SDS011;53413;49.878;8.142;2024-01-30T10:25:07;30.67;;;14.50;;
66559;SDS011;53413;49.878;8.142;2024-01-30T10:27:32;29.37;;;13.67;;
66559;SDS011;53413;49.878;8.142;2024-01-30T10:29:58;29.50;;;13.50;;
66559;SDS011;53413;49.878;8.142;2024-01-30T10:32:23;30.53;;;12.80;;
66559;SDS011;53413;49.878;8.142;2024-01-30T10:34:49;29.50;;;13.98;;
66559;SDS011;53413;49.878;8.142;2024-01-30T10:37:14;29.10;;;12.73;;
66559;SDS011;53413;49.878;8.142;2024-01-30T10:39:41;28.10;;;13.67;;
66559;SDS011;53413;49.878;8.142;2024-01-30T10:42:12;28.58;;;13.82;;
66559;SDS011;53413;49.878;8.142;2024-01-30T10:45:20;28.85;;;13.65;;
66559;SDS011;53413;49.878;8.142;2024-01-30T10:47:36;31.58;;;14.07;;
66559;SDS011;53413;49.878;8.142;2024-01-30T10:50:02;31.17;;;14.10;;
66559;SDS011;53413;49.878;8.142;2024-01-30T10:52:31;31.13;;;14.40;;
66559;SDS011;53413;49.878;8.142;2024-01-30T10:54:57;31.33;;;14.63;;
66559;SDS011;53413;49.878;8.142;2024-01-30T10:57:24;32.80;;;15.45;;
66559;SDS011;53413;49.878;8.142;2024-01-30T10:59:50;33.28;;;15.70;;
66559;SDS011;53413;49.878;8.142;2024-01-30T11:02:18;31.52;;;14.88;;
66559;SDS011;53413;49.878;8.142;2024-01-30T11:04:43;34.03;;;14.97;;
66559;SDS011;53413;49.878;8.142;2024-01-30T11:07:24;30.92;;;14.88;;
66559;SDS011;53413;49.878;8.142;2024-01-30T11:09:52;33.17;;;16.02;;
66559;SDS011;53413;49.878;8.142;2024-01-30T11:12:25;33.40;;;15.60;;
66559;SDS011;53413;49.878;8.142;2024-01-30T11:15:04;32.85;;;15.80;;
66559;SDS011;53413;49.878;8.142;2024-01-30T11:17:44;34.97;;;15.70;;
66559;SDS011;53413;49.878;8.142;2024-01-30T11:20:10;37.58;;;16.80;;
66559;SDS011;53413;49.878;8.142;2024-01-30T11:22:42;37.90;;;17.38;;
66559;SDS011;53413;49.878;8.142;2024-01-30T11:25:13;39.63;;;18.08;;
66559;SDS011;53413;49.878;8.142;2024-01-30T11:27:42;37.40;;;17.15;;
66559;SDS011;53413;49.878;8.142;2024-01-30T11:30:08;37.87;;;17.90;;
66559;SDS011;53413;49.878;8.142;2024-01-30T11:32:34;33.95;;;15.82;;
66559;SDS011;53413;49.878;8.142;2024-01-30T11:35:00;32.23;;;14.87;;
66559;SDS011;53413;49.878;8.142;2024-01-30T11:37:28;31.15;;;14.70;;
66559;SDS011;53413;49.878;8.142;2024-01-30T11:39:53;31.25;;;14.93;;
66559;SDS011;53413;49.878;8.142;2024-01-30T11:42:21;31.98;;;14.90;;
66559;SDS011;53413;49.878;8.142;2024-01-30T11:44:49;32.23;;;14.47;;
66559;SDS011;53413;49.878;8.142;2024-01-30T11:47:15;29.00;;;14.30;;
66559;SDS011;53413;49.878;8.142;2024-01-30T11:49:41;28.23;;;14.45;;
66559;SDS011;53413;49.878;8.142;2024-01-30T11:52:08;29.10;;;14.73;;
66559;SDS011;53413;49.878;8.142;2024-01-30T11:54:39;31.02;;;14.90;;
66559;SDS011;53413;49.878;8.142;2024-01-30T11:57:05;32.33;;;15.00;;
66559;SDS011;53413;49.878;8.142;2024-01-30T11:59:30;31.73;;;14.27;;
66559;SDS011;53413;49.878;8.142;2024-01-30T12:01:55;30.63;;;14.40;;
66559;SDS011;53413;49.878;8.142;2024-01-30T12:04:21;30.70;;;14.00;;
66559;SDS011;53413;49.878;8.142;2024-01-30T12:06:46;32.13;;;14.02;;
66559;SDS011;53413;49.878;8.142;2024-01-30T12:09:16;31.42;;;14.48;;
66559;SDS011;53413;49.878;8.142;2024-01-30T12:11:45;29.30;;;14.00;;
66559;SDS011;53413;49.878;8.142;2024-01-30T12:14:11;31.70;;;14.93;;
66559;SDS011;53413;49.878;8.142;2024-01-30T12:16:37;30.38;;;14.13;;
66559;SDS011;53413;49.878;8.142;2024-01-30T12:19:03;29.53;;;13.60;;
66559;SDS011;53413;49.878;8.142;2024-01-30T12:21:28;28.20;;;14.07;;
66559;SDS011;53413;49.878;8.142;2024-01-30T12:23:56;29.13;;;14.25;;
66559;SDS011;53413;49.878;8.142;2024-01-30T12:26:23;29.48;;;13.68;;
66559;SDS011;53413;49.878;8.142;2024-01-30T12:28:50;27.53;;;13.53;;
66559;SDS011;53413;49.878;8.142;2024-01-30T12:31:15;28.17;;;13.57;;
66559;SDS011;53413;49.878;8.142;2024-01-30T12:33:41;29.93;;;14.30;;
66559;SDS011;53413;49.878;8.142;2024-01-30T12:36:06;27.60;;;14.13;;
66559;SDS011;53413;49.878;8.142;2024-01-30T12:38:32;28.92;;;13.82;;
66559;SDS011;53413;49.878;8.142;2024-01-30T12:40:58;28.77;;;14.00;;
66559;SDS011;53413;49.878;8.142;2024-01-30T12:43:23;31.43;;;14.30;;
66559;SDS011;53413;49.878;8.142;2024-01-30T12:45:52;29.15;;;13.38;;
66559;SDS011;53413;49.878;8.142;2024-01-30T12:48:18;29.02;;;13.98;;
66559;SDS011;53413;49.878;8.142;2024-01-30T12:50:43;32.07;;;14.50;;
66559;SDS011;53413;49.878;8.142;2024-01-30T12:53:08;31.20;;;14.93;;
66559;SDS011;53413;49.878;8.142;2024-01-30T12:55:37;31.05;;;14.70;;
66559;SDS011;53413;49.878;8.142;2024-01-30T12:58:03;32.93;;;14.30;;
66559;SDS011;53413;49.878;8.142;2024-01-30T13:00:28;28.55;;;13.90;;
66559;SDS011;53413;49.878;8.142;2024-01-30T13:02:54;26.83;;;14.00;;
66559;SDS011;53413;49.878;8.142;2024-01-30T13:05:19;30.20;;;14.50;;
66559;SDS011;53413;49.878;8.142;2024-01-30T13:07:45;31.05;;;14.45;;
66559;SDS011;53413;49.878;8.142;2024-01-30T13:10:10;29.80;;;14.77;;
66559;SDS011;53413;49.878;8.142;2024-01-30T13:12:36;34.13;;;17.07;;
66559;SDS011;53413;49.878;8.142;2024-01-30T13:15:03;32.60;;;17.20;;
66559;SDS011;53413;49.878;8.142;2024-01-30T13:17:30;28.60;;;14.77;;
66559;SDS011;53413;49.878;8.142;2024-01-30T13:19:55;30.93;;;14.00;;
66559;SDS011;53413;49.878;8.142;2024-01-30T13:22:20;27.95;;;13.57;;
66559;SDS011;53413;49.878;8.142;2024-01-30T13:24:49;27.77;;;12.82;;
66559;SDS011;53413;49.878;8.142;2024-01-30T13:27:15;27.88;;;13.20;;
66559;SDS011;53413;49.878;8.142;2024-01-30T13:29:40;26.33;;;13.23;;
66559;SDS011;53413;49.878;8.142;2024-01-30T13:32:06;28.70;;;13.45;;
66559;SDS011;53413;49.878;8.142;2024-01-30T13:34:31;27.27;;;12.75;;
66559;SDS011;53413;49.878;8.142;2024-01-30T13:36:57;28.10;;;13.43;;
66559;SDS011;53413;49.878;8.142;2024-01-30T13:39:22;30.23;;;12.73;;
66559;SDS011;53413;49.878;8.142;2024-01-30T13:41:48;27.65;;;13.30;;
66559;SDS011;53413;49.878;8.142;2024-01-30T13:44:13;27.00;;;12.90;;
66559;SDS011;53413;49.878;8.142;2024-01-30T13:46:41;27.02;;;13.05;;
66559;SDS011;53413;49.878;8.142;2024-01-30T13:49:06;27.90;;;12.97;;
66559;SDS011;53413;49.878;8.142;2024-01-30T13:51:32;28.55;;;12.90;;
66559;SDS011;53413;49.878;8.142;2024-01-30T13:53:57;26.67;;;13.27;;
66559;SDS011;53413;49.878;8.142;2024-01-30T13:56:23;25.50;;;13.33;;
66559;SDS011;53413;49.878;8.142;2024-01-30T13:58:48;26.93;;;12.93;;
66559;SDS011;53413;49.878;8.142;2024-01-30T14:01:15;24.92;;;12.43;;
66559;SDS011;53413;49.878;8.142;2024-01-30T14:03:40;27.98;;;13.38;;
66559;SDS011;53413;49.878;8.142;2024-01-30T14:06:06;27.47;;;12.87;;
66559;SDS011;53413;49.878;8.142;2024-01-30T14:08:31;26.43;;;12.83;;
66559;SDS011;53413;49.878;8.142;2024-01-30T14:10:57;25.05;;;12.38;;
66559;SDS011;53413;49.878;8.142;2024-01-30T14:13:23;29.50;;;12.80;;